createdAt,value
2018-06-09T07:46:23.913Z,77.80
2018-06-09T07:48:53.225Z,78.90
2018-06-09T07:51:22.061Z,77.40
2018-06-09T07:53:50.687Z,78.10
2018-06-09T07:56:18.864Z,78.00
2018-06-09T07:58:47.037Z,77.10
2018-06-09T08:01:15.206Z,77.10
2018-06-09T08:03:43.368Z,76.40
2018-06-09T08:06:11.531Z,77.70
2018-06-09T08:08:40.567Z,76.80
2018-06-09T08:11:08.875Z,78.10
2018-06-09T08:13:37.110Z,77.30
2018-06-09T08:16:05.282Z,76.50
2018-06-09T08:18:39.231Z,77.40
2018-06-09T08:21:08.032Z,78.50
2018-06-09T08:23:36.199Z,76.40
2018-06-09T08:26:04.992Z,76.60
2018-06-09T08:28:33.289Z,75.80
2018-06-09T08:31:02.592Z,76.50
2018-06-09T08:33:31.076Z,76.40
2018-06-09T08:35:59.303Z,76.50
2018-06-09T08:38:28.976Z,75.60
2018-06-09T08:43:25.363Z,74.20
2018-06-09T08:45:53.532Z,73.40
2018-06-09T08:48:21.702Z,71.30
2018-06-09T08:50:49.880Z,71.60
2018-06-09T08:53:18.057Z,71.30
2018-06-09T08:55:46.238Z,72.30
2018-06-09T08:58:14.421Z,71.50
2018-06-09T09:00:42.652Z,72.00
2018-06-09T09:03:10.851Z,73.40
2018-06-09T09:05:39.039Z,73.40
2018-06-09T09:08:07.652Z,72.20
2018-06-09T09:10:35.833Z,72.30
2018-06-09T09:13:04.008Z,72.60
2018-06-09T09:15:32.184Z,72.60
2018-06-09T09:18:00.364Z,71.70
2018-06-09T09:22:56.539Z,72.30
2018-06-09T09:25:24.723Z,72.10
2018-06-09T09:27:52.897Z,73.40
2018-06-09T09:30:21.064Z,74.90
2018-06-09T09:32:49.242Z,74.60
2018-06-09T09:35:17.427Z,73.90
2018-06-09T09:37:45.602Z,73.80
2018-06-09T09:40:13.764Z,74.10
2018-06-09T09:42:41.938Z,73.80
2018-06-09T09:45:10.108Z,74.10
2018-06-09T09:47:38.308Z,72.60
2018-06-09T09:50:06.537Z,71.90
2018-06-09T09:52:34.743Z,72.70
2018-06-09T09:55:02.928Z,71.10
2018-06-09T09:57:41.352Z,69.60
2018-06-09T10:00:09.545Z,69.80
2018-06-09T10:02:38.819Z,68.30
2018-06-09T10:05:06.980Z,68.30
2018-06-09T10:07:35.161Z,67.40
2018-06-09T10:10:03.344Z,69.10
2018-06-09T10:12:31.520Z,68.60
2018-06-09T10:14:59.697Z,69.00
2018-06-09T10:17:27.865Z,69.00
2018-06-09T10:19:56.033Z,69.60
2018-06-09T10:22:24.214Z,68.90
2018-06-09T10:24:52.400Z,66.60
2018-06-09T10:27:26.395Z,66.10
2018-06-09T10:29:54.573Z,66.30
2018-06-09T10:32:22.746Z,66.00
2018-06-09T10:34:50.920Z,68.30
2018-06-09T10:37:19.096Z,66.70
2018-06-09T10:39:47.381Z,67.60
2018-06-09T10:42:15.545Z,67.40
2018-06-09T10:44:43.785Z,67.80
2018-06-09T10:47:11.956Z,67.80
2018-06-09T10:49:40.593Z,67.00
2018-06-09T10:52:08.765Z,68.00
2018-06-09T10:54:36.948Z,68.20
2018-06-09T10:57:05.630Z,68.40
2018-06-09T10:59:33.804Z,69.00
2018-06-09T11:02:02.001Z,68.10
2018-06-09T11:04:30.166Z,67.40
2018-06-09T11:06:58.372Z,66.30
2018-06-09T11:09:26.544Z,66.20
2018-06-09T11:11:54.715Z,66.10
2018-06-09T11:14:22.913Z,65.20
2018-06-09T11:16:51.088Z,63.90
2018-06-09T11:19:19.293Z,64.70
2018-06-09T11:21:47.481Z,64.20
2018-06-09T11:24:15.680Z,64.40
2018-06-09T11:26:43.864Z,64.40
2018-06-09T11:29:12.041Z,61.50
2018-06-09T11:31:40.212Z,61.10
2018-06-09T11:34:08.392Z,59.80
2018-06-09T11:36:36.609Z,60.00
2018-06-09T11:39:07.738Z,61.80
2018-06-09T11:41:36.296Z,61.00
2018-06-09T11:44:05.024Z,62.70
2018-06-09T11:46:33.209Z,62.60
2018-06-09T11:49:01.384Z,62.30
2018-06-09T11:51:29.573Z,60.80
2018-06-09T11:53:57.758Z,61.00
2018-06-09T11:56:25.959Z,59.60
2018-06-09T11:58:54.159Z,57.80
2018-06-09T12:01:22.328Z,59.80
2018-06-09T12:03:50.512Z,60.70
2018-06-09T12:06:18.705Z,59.90
2018-06-09T12:08:46.876Z,59.80
2018-06-09T12:11:15.085Z,58.10
2018-06-09T12:13:43.248Z,56.90
2018-06-09T12:16:11.423Z,56.50
2018-06-09T12:18:39.700Z,57.30
2018-06-09T12:21:07.856Z,58.20
2018-06-09T12:23:36.080Z,57.30
2018-06-09T12:26:04.427Z,57.20
2018-06-09T12:28:32.604Z,56.50
2018-06-09T12:31:00.780Z,55.10
2018-06-09T12:33:28.965Z,57.50
2018-06-09T12:35:57.135Z,57.80
2018-06-09T12:38:25.297Z,55.30
2018-06-09T12:40:53.477Z,55.80
2018-06-09T12:43:21.652Z,58.30
2018-06-09T12:45:49.832Z,60.60
2018-06-09T12:48:26.484Z,61.70
2018-06-09T12:50:54.860Z,61.00
2018-06-09T12:53:23.057Z,61.90
2018-06-09T12:55:58.346Z,60.90
2018-06-09T12:58:32.110Z,61.60
2018-06-09T13:01:00.531Z,61.70
2018-06-09T13:03:28.704Z,61.50
2018-06-09T13:05:56.864Z,60.80
2018-06-09T13:08:25.033Z,59.70
2018-06-09T13:10:53.204Z,59.30
2018-06-09T13:13:21.444Z,58.30
2018-06-09T13:15:52.999Z,58.70
2018-06-09T13:18:21.160Z,59.40
2018-06-09T13:20:49.365Z,57.40
2018-06-09T13:23:17.540Z,57.50
2018-06-09T13:25:45.696Z,59.20
2018-06-09T13:28:13.864Z,56.60
2018-06-09T13:30:42.032Z,56.20
2018-06-09T13:33:10.196Z,57.10
2018-06-09T13:35:38.368Z,55.70
2018-06-09T13:38:06.535Z,56.80
2018-06-09T13:40:34.728Z,57.10
2018-06-09T13:43:02.893Z,57.80
2018-06-09T13:45:31.076Z,58.40
2018-06-09T13:47:59.241Z,57.80
2018-06-09T13:50:27.414Z,59.10
2018-06-09T13:52:55.576Z,57.40
2018-06-09T13:55:23.749Z,56.90
2018-06-09T13:57:51.912Z,57.50
2018-06-09T14:00:20.084Z,59.40
2018-06-09T14:02:48.245Z,58.30
2018-06-09T14:05:16.417Z,58.40
2018-06-09T14:07:44.581Z,58.60
2018-06-09T14:10:12.761Z,59.10
2018-06-09T14:12:40.933Z,58.80
2018-06-09T14:15:09.096Z,57.80
2018-06-09T14:17:37.286Z,57.70
2018-06-09T14:20:05.453Z,57.30
2018-06-09T14:22:33.620Z,56.80
2018-06-09T14:25:01.796Z,58.50
2018-06-09T14:27:29.964Z,56.20
2018-06-09T14:29:58.136Z,56.20
2018-06-09T14:32:26.332Z,56.20
2018-06-09T14:34:54.499Z,56.60
2018-06-09T14:37:22.661Z,56.50
2018-06-09T14:39:50.857Z,57.20
2018-06-09T14:42:19.020Z,56.60
2018-06-09T14:44:47.189Z,56.40
2018-06-09T14:47:15.355Z,56.10
2018-06-09T14:49:43.532Z,56.80
2018-06-09T14:54:39.684Z,57.30
2018-06-09T14:57:07.861Z,56.50
2018-06-09T14:59:36.024Z,56.50
2018-06-09T15:02:04.192Z,56.80
2018-06-09T15:04:32.356Z,56.10
2018-06-09T15:07:00.516Z,55.00
2018-06-09T15:09:28.680Z,54.20
2018-06-09T15:11:56.850Z,54.20
2018-06-09T15:14:25.031Z,54.50
2018-06-09T15:16:53.199Z,55.60
2018-06-09T15:19:21.369Z,55.80
2018-06-09T15:21:49.537Z,55.60
2018-06-09T15:24:17.700Z,56.80
2018-06-09T15:26:45.892Z,57.10
2018-06-09T15:29:14.045Z,55.80
2018-06-09T15:31:42.264Z,56.50
2018-06-09T15:34:10.452Z,55.20
2018-06-09T15:36:38.614Z,55.40
2018-06-09T15:39:07.736Z,54.60
2018-06-09T15:41:35.932Z,56.00
2018-06-09T15:44:04.105Z,56.30
2018-06-09T15:46:32.275Z,57.00
2018-06-09T15:49:00.452Z,57.20
2018-06-09T15:51:36.556Z,57.90
2018-06-09T15:59:06.571Z,57.70
2018-06-09T16:01:35.001Z,57.90
2018-06-09T16:04:18.958Z,58.40
2018-06-09T16:06:47.144Z,57.80
2018-06-09T16:09:15.457Z,57.80
2018-06-09T16:11:43.631Z,58.20
2018-06-09T16:14:11.797Z,59.00
2018-06-09T16:16:39.966Z,59.20
2018-06-09T16:19:08.132Z,59.80
2018-06-09T16:21:36.304Z,59.40
2018-06-09T16:24:04.465Z,59.30
2018-06-09T16:26:32.624Z,59.30
2018-06-09T16:29:00.788Z,58.90
2018-06-09T16:31:28.952Z,59.10
2018-06-09T16:33:57.128Z,59.90
2018-06-09T16:36:25.320Z,60.00
2018-06-09T16:38:53.491Z,61.60
2018-06-09T16:41:21.649Z,62.10
2018-06-09T16:43:49.812Z,63.80
2018-06-09T16:46:17.988Z,64.70
2018-06-09T16:48:46.177Z,66.40
2018-06-09T16:51:14.344Z,66.10
2018-06-09T16:53:42.509Z,67.80
2018-06-09T16:56:10.668Z,68.30
2018-06-09T16:58:38.860Z,69.30
2018-06-09T17:01:07.038Z,69.50
2018-06-09T17:03:35.196Z,69.70
2018-06-09T17:06:03.380Z,70.20
2018-06-09T17:08:31.564Z,70.70
2018-06-09T17:10:59.749Z,70.40
2018-06-09T17:13:28.936Z,70.90
2018-06-09T17:15:57.128Z,70.90
2018-06-09T17:18:25.306Z,71.50
2018-06-09T17:20:53.486Z,71.70
2018-06-09T17:23:21.665Z,71.50
2018-06-09T17:25:49.840Z,71.60
2018-06-09T17:28:18.017Z,72.10
2018-06-09T17:30:46.193Z,71.80
2018-06-09T17:33:14.376Z,71.60
2018-06-09T17:35:42.561Z,72.00
2018-06-09T17:38:10.828Z,72.90
2018-06-09T17:40:39.005Z,72.10
2018-06-09T17:43:07.200Z,72.00
2018-06-09T17:45:35.372Z,71.80
2018-06-09T17:48:03.549Z,72.10
2018-06-09T17:50:31.727Z,72.80
2018-06-09T17:52:59.908Z,73.00
2018-06-09T17:55:28.085Z,72.90
2018-06-09T17:57:56.264Z,73.30
2018-06-09T18:00:24.440Z,73.10
2018-06-09T18:02:52.639Z,73.40
2018-06-09T18:05:20.823Z,74.00
2018-06-09T18:07:49.091Z,74.60
2018-06-09T18:10:17.267Z,74.80
2018-06-09T18:12:45.445Z,75.00
2018-06-09T18:15:13.620Z,75.10
2018-06-09T18:17:41.796Z,75.50
2018-06-09T18:20:09.972Z,77.20
2018-06-09T18:22:38.215Z,79.10
2018-06-09T18:25:06.383Z,81.00
2018-06-09T18:27:34.564Z,81.70
2018-06-09T18:30:02.758Z,82.60
2018-06-09T18:32:30.963Z,83.20
2018-06-09T18:34:59.140Z,84.10
2018-06-09T18:37:27.312Z,84.40
2018-06-09T18:39:55.496Z,84.30
2018-06-09T18:42:23.668Z,84.60
2018-06-09T18:44:51.916Z,85.50
2018-06-09T18:47:20.432Z,86.30
2018-06-09T18:49:48.652Z,87.50
2018-06-09T18:52:16.997Z,88.30
2018-06-09T18:54:45.177Z,89.40
2018-06-09T18:57:13.356Z,90.20
2018-06-09T18:59:41.533Z,90.90
2018-06-09T19:02:09.708Z,91.70
2018-06-09T19:07:05.897Z,93.30
2018-06-09T19:09:34.088Z,93.60
2018-06-09T19:12:02.273Z,94.10
2018-06-09T19:14:30.459Z,94.40
2018-06-09T19:16:58.645Z,94.70
2018-06-09T19:19:26.823Z,95.10
2018-06-09T19:21:55.038Z,95.40
2018-06-09T19:24:23.174Z,95.60
2018-06-09T19:26:51.348Z,95.60
2018-06-09T19:29:19.525Z,95.80
2018-06-09T19:31:47.701Z,96.00
2018-06-09T19:34:15.885Z,96.10
2018-06-09T19:36:44.056Z,96.10
2018-06-09T19:39:12.232Z,96.00
2018-06-09T19:41:40.409Z,96.00
2018-06-09T19:44:08.592Z,96.10
2018-06-09T19:46:36.781Z,96.20
2018-06-09T19:49:04.976Z,96.00
2018-06-09T19:51:33.156Z,95.90
2018-06-09T19:54:01.333Z,95.90
2018-06-09T19:56:29.501Z,95.40
2018-06-09T19:58:57.676Z,95.30
2018-06-09T20:01:25.852Z,94.70
2018-06-09T20:03:54.028Z,94.80
2018-06-09T20:06:22.580Z,94.90
2018-06-09T20:08:50.793Z,94.80
2018-06-09T20:11:18.965Z,95.20
2018-06-09T20:13:47.149Z,95.30
2018-06-09T20:16:15.320Z,95.40
2018-06-09T20:18:43.500Z,95.80
2018-06-09T20:21:11.732Z,95.90
2018-06-09T20:23:39.861Z,95.80
2018-06-09T20:26:08.033Z,95.60
2018-06-09T20:28:36.204Z,95.10
2018-06-09T20:31:04.788Z,94.70
2018-06-09T20:33:32.960Z,94.80
2018-06-09T20:36:01.136Z,94.70
2018-06-09T20:38:29.386Z,95.00
2018-06-09T20:40:57.672Z,95.10
2018-06-09T20:43:25.836Z,95.20
2018-06-09T20:45:54.018Z,95.20
2018-06-09T20:48:22.185Z,95.10
2018-06-09T20:50:50.376Z,94.90
2018-06-09T20:53:18.562Z,95.00
2018-06-09T20:55:46.732Z,95.10
2018-06-09T20:58:14.920Z,95.20
2018-06-09T21:00:43.579Z,95.30
2018-06-09T21:03:11.754Z,95.10
2018-06-09T21:05:40.009Z,95.00
2018-06-09T21:08:08.148Z,94.70
2018-06-09T21:10:36.341Z,94.80
2018-06-09T21:13:04.549Z,94.90
2018-06-09T21:15:32.701Z,94.90
2018-06-09T21:18:00.881Z,94.60
2018-06-09T21:20:29.477Z,94.60
2018-06-09T21:22:57.652Z,93.90
2018-06-09T21:25:25.868Z,93.70
2018-06-09T21:27:59.372Z,93.90
2018-06-09T21:30:33.183Z,93.30
2018-06-09T21:33:06.808Z,93.10
2018-06-09T21:35:50.796Z,92.30
2018-06-09T21:38:23.213Z,92.20
2018-06-09T21:40:55.632Z,92.10
2018-06-09T21:43:25.616Z,92.20
2018-06-09T21:45:54.376Z,92.40
2018-06-09T21:48:22.556Z,92.50
2018-06-09T21:50:50.908Z,92.60
2018-06-09T21:53:19.182Z,93.00
2018-06-09T21:55:47.352Z,92.70
2018-06-09T21:58:15.524Z,92.60
2018-06-09T22:00:43.723Z,92.60
2018-06-09T22:03:11.918Z,92.70
2018-06-09T22:05:40.116Z,93.00
2018-06-09T22:08:08.296Z,93.00
2018-06-09T22:10:36.481Z,93.10
2018-06-09T22:13:04.652Z,93.30
2018-06-09T22:18:00.830Z,93.30
2018-06-09T22:20:29.106Z,93.50
2018-06-09T22:22:57.274Z,93.90
2018-06-09T22:25:30.863Z,94.00
2018-06-09T22:27:59.056Z,94.00
2018-06-09T22:30:27.226Z,94.10
2018-06-09T22:32:55.405Z,94.20
2018-06-09T22:35:23.580Z,93.90
2018-06-09T22:37:51.768Z,94.10
2018-06-09T22:40:19.945Z,94.10
2018-06-09T22:42:48.129Z,94.10
2018-06-09T22:45:16.378Z,94.10
2018-06-09T22:47:44.562Z,94.10
2018-06-09T22:50:12.721Z,94.10
2018-06-09T22:52:40.916Z,94.20
2018-06-09T22:55:09.089Z,94.30
2018-06-09T22:57:37.360Z,94.30
2018-06-09T23:00:05.560Z,94.30
2018-06-09T23:02:33.757Z,94.40
2018-06-09T23:05:01.932Z,94.40
2018-06-09T23:07:30.113Z,94.50
2018-06-09T23:09:58.297Z,94.60
2018-06-09T23:12:26.511Z,94.80
2018-06-09T23:14:54.702Z,94.80
2018-06-09T23:17:22.891Z,94.70
2018-06-09T23:19:51.069Z,94.60
2018-06-09T23:22:19.257Z,93.70
2018-06-09T23:24:47.438Z,93.60
2018-06-09T23:27:15.608Z,93.20
2018-06-09T23:29:43.775Z,93.40
2018-06-09T23:32:11.949Z,93.30
2018-06-09T23:34:40.116Z,92.70
